Skip to main content

NOAA/GLERL Met Station at Chicago, IL

Previous 5 days (top of hour only)
See also Previous 3 Hours (2 minute increments)
Jump down to Data
Switch to [English][Metric]
Zoom: Click and drag, Pan: shift-click and drag, Unzoom: double-click, Unzoom All




Note: Speed = mean wind during 2-minute period at top of hour,
Gust = max wind during 2-minute period at top of hour,
Peak = max wind during entire hour.
• See also 5-day windrose plot


NOAA/GLERL Met Station at Chicago, IL

Previous 5 days (top of hour only)
See also Previous 3 Hours (2 minute increments)
Jump up to Graphs
Switch to [English][Metric]
                  Wind  Wind  Wind   Air   Dew   Rel
                   Spd   Gst   Dir  Temp    Pt   Hum
YYYY-MM-DD   CST   kts   kts   deg     F     F     %
2019-12-15 00:00 -99.0 -99.0   -99   0.0   0.0   0.0
2019-12-14 09:00   8.6   9.1   320  34.9  34.3  97.6
2019-12-14 08:00   6.4   7.0   336  35.6  35.7 100.2
2019-12-14 07:00   4.7   4.9   311  35.1  35.1 100.2
2019-12-14 06:00   5.2   5.8   332  35.2  35.3 100.2
2019-12-14 05:00   8.9   9.5   344  35.1  35.1 100.2
2019-12-14 04:00   6.8   7.2   344  36.7  35.9  97.1
2019-12-14 03:00   4.9   4.9   335  36.7  36.7 100.2
2019-12-14 02:00   2.3   2.7   346  36.9  36.9 100.2
2019-12-14 01:00   2.5   2.9   121  36.5  36.6 100.2
2019-12-14 00:00   5.1   5.4   338  37.2  37.2 100.0
2019-12-13 23:00   4.7   5.4   349  36.3  36.4 100.2
2019-12-13 22:00   4.1   4.9   195  39.2  32.6  76.8
2019-12-13 21:00   5.8   6.2   178  40.8  32.1  70.7
2019-12-13 20:00   3.3   3.7   276  42.4  32.0  66.3
2019-12-13 19:00   8.6   8.9   200  42.4  31.3  64.4
2019-12-13 18:00  11.3  11.7   197  42.8  30.5  61.4
2019-12-13 17:00   8.7  10.1   157  41.0  33.2  73.5
2019-12-13 16:00   7.2   7.6   173  41.7  32.5  69.6
2019-12-13 15:00   8.9   9.5   166  42.1  31.7  66.4
2019-12-13 14:00   9.7  10.5   164  40.8  31.9  70.2
2019-12-13 13:00  12.8  13.8   165  40.8  31.0  67.6
2019-12-13 12:00   6.8   7.8   158  39.2  33.6  80.0
2019-12-13 11:00   8.7   9.3   171  38.3  32.3  78.9
2019-12-13 10:00  11.5  11.7   182  37.9  31.2  76.4
2019-12-13 09:00   8.6   9.5   189  38.1  31.6  77.0
2019-12-13 08:00  10.7  11.1   184  37.9  31.9  78.6
2019-12-13 07:00  12.4  13.8   210  38.8  30.3  71.1
2019-12-13 06:00  13.2  14.8   209  38.8  30.2  70.9
2019-12-13 05:00  14.8  16.3   201  39.0  29.7  68.9
2019-12-13 04:00  15.9  17.7   204  39.2  29.8  68.6
2019-12-13 03:00  15.7  17.3   204  39.4  30.4  69.8
2019-12-13 02:00  16.9  19.1   202  39.6  30.3  69.2
2019-12-13 01:00  17.1  19.2   202  40.3  29.9  66.2
2019-12-13 00:00  17.9  19.4   191  40.1  30.7  68.8
2019-12-12 23:00  18.5  19.8   199  40.6  30.0  65.4
2019-12-12 22:00  21.6  24.1   196  41.0  28.9  61.7
2019-12-12 21:00  23.3  26.2   199  41.0  29.3  62.8
2019-12-12 20:00  24.3  26.2   197  41.2  29.3  62.4
2019-12-12 19:00  23.3  25.7   197  41.9  29.2  60.3
2019-12-12 18:00  24.1  25.3   191  42.4  29.4  59.7
2019-12-12 17:00  22.2  24.1   191  42.8  29.9  59.9
2019-12-12 16:00  23.3  27.0   197  43.7  29.6  57.3
2019-12-12 15:00  28.4  30.9   196  44.6  29.1  54.2
2019-12-12 14:00  29.9  34.4   198  43.7  28.5  54.8
2019-12-12 13:00  30.1  34.6   197  42.8  27.5  54.3
2019-12-12 12:00  31.9  35.4   194  40.5  27.3  59.1
2019-12-12 11:00  29.9  31.9   194  37.4  27.3  66.5
2019-12-12 10:00  25.1  28.2   187  34.7  26.6  72.1
2019-12-12 09:00  25.7  29.4   179  31.8  26.6  80.7
2019-12-12 08:00  26.0  28.4   176  28.9  24.4  83.1
2019-12-12 07:00  24.9  28.0   170  27.3  23.3  84.6
2019-12-12 06:00  22.7  25.5   167  27.0  22.8  84.2
2019-12-12 05:00  19.6  23.7   159  26.8  22.5  83.7
2019-12-12 04:00  15.0  19.8   150  27.5  23.4  84.5
2019-12-12 03:00  18.3  23.1   164  25.9  20.8  80.8
2019-12-12 02:00  17.7  22.9   171  25.9  22.2  85.6
2019-12-12 01:00  13.8  15.9   167  25.3  20.5  81.6
2019-12-12 00:00  14.4  15.9   174  24.8  18.5  76.8
2019-12-11 23:00   8.0  12.4   163  24.4  18.3  77.3
2019-12-11 22:00  10.9  12.2   186  24.1  15.2  68.6
2019-12-11 21:00   9.3  10.9   205  23.7  13.4  64.5
2019-12-11 20:00   7.8   9.1   199  23.7  12.4  61.6
2019-12-11 19:00   9.1  11.1   196  24.1  12.6  61.3
2019-12-11 18:00   3.7   4.7   271  24.3   9.1  52.2
2019-12-11 17:00   5.2   6.6   289  24.3   8.5  50.8
2019-12-11 16:00   6.2   7.0   271  24.3   7.3  48.2
2019-12-11 15:00   5.4   6.8   279  24.4   7.0  47.0
2019-12-11 14:00   5.1   7.2   237  23.2   8.9  54.1
2019-12-11 13:00  11.9  13.2   285  22.5   9.5  57.2
2019-12-11 12:00  13.0  15.9   277  21.4  11.3  64.7
2019-12-11 11:00  14.2  16.3   289  19.8  11.7  70.5
2019-12-11 10:00  17.1  19.8   281  18.5  12.4  76.8
2019-12-11 09:00  15.4  18.7   266  18.0  13.1  81.1
2019-12-11 08:00  12.1  15.6   264  16.5  12.3  83.3
2019-12-11 07:00  14.0  17.1   265  16.5  11.2  79.2
2019-12-11 06:00  13.8  16.1   231  15.4   7.0  68.9
2019-12-11 05:00  15.6  17.1   272  15.1   5.3  65.0
2019-12-11 04:00  12.1  14.4   262  15.3   5.9  66.2
2019-12-11 03:00  21.0  23.9   247  16.5   6.7  64.9
2019-12-11 02:00  20.0  26.2   237  18.5  10.2  69.9
2019-12-11 01:00  18.7  23.1   248  18.1  11.4  74.7
2019-12-11 00:00  19.1  22.4   256  17.6  10.4  73.1
2019-12-10 23:00  21.4  24.9   268  17.8   9.8  70.6
2019-12-10 22:00  17.7  23.5   262  18.7  11.0  71.7
2019-12-10 21:00  21.2  25.3   261  19.2   8.6  62.9
2019-12-10 20:00  18.3  21.0   258  20.3   5.0  51.2
2019-12-10 19:00  16.9  21.2   253  20.5   3.7  48.0
2019-12-10 18:00  18.1  20.6   254  21.2   5.3  49.9
2019-12-10 17:00  17.3  21.0   266  21.9   2.7  43.1
2019-12-10 16:00  16.3  18.9   267  22.5   4.8  46.4
2019-12-10 15:00  14.0  17.5   252  22.6   4.5  45.4
2019-12-10 14:00  17.1  19.8   276  21.6   2.4  43.1
2019-12-10 13:00  16.3  19.2   274  20.5   5.9  52.9
2019-12-10 12:00  14.2  17.7   271  19.2  10.2  67.5
2019-12-10 11:00  19.2  22.6   278  17.6  11.1  75.5
2019-12-10 10:00  18.9  22.0   263  16.5  11.0  78.7
2019-12-10 09:00  17.7  19.6   257  16.3  11.4  80.5
2019-12-10 08:00  19.4  22.7   269  17.4  12.8  81.8
2019-12-10 07:00  19.8  21.8   255  19.2  14.6  82.0
2019-12-10 06:00  19.6  22.4   272  19.9  15.8  83.9
2019-12-10 05:00  21.2  23.7   275  21.6  17.1  82.9
2019-12-10 04:00  21.2  22.7   274  22.3  17.7  82.2
2019-12-10 03:00  21.6  24.9   267  22.8  18.0  81.6
2019-12-10 02:00  18.3  22.2   272  24.6  19.7  81.3
2019-12-10 01:00  20.4  24.5   279  25.7  20.9  81.9
2019-12-10 00:00  21.4  23.1   256  26.1  21.0  80.8
2019-12-09 23:00  19.1  20.8   262  27.3  22.2  81.0
2019-12-09 22:00  22.7  25.9   259  28.0  22.7  80.3
2019-12-09 21:00  28.0  31.1   269  29.7  25.4  83.8
2019-12-09 20:00  30.5  34.8   266  32.2  27.2  81.7
2019-12-09 19:00  29.0  33.4   268  35.2  31.5  86.0
2019-12-09 18:00  29.5  33.6   256  39.7  37.3  91.0
2019-12-09 17:00  20.2  24.9   254  46.6  43.2  87.9